Lerwick, United Kingdom
Current Conditions -  °F | °C
As of 8:50 PM on Monday 22 Dec 2014 (Local Time) from EGPB Reporting Station
Rain Showers Rain Showers  
Wind Chill: 35°   Ceiling: Unl
Heat Index: 43°   Visibility: 4mi
Dew Point: 39°   Wind: 17mph
Humidity: 87%   Direction: 280°W
Pressure: 29.29"   Gusts: NA
Location:  60.15°N, 1.15°W
Report Text: EGPB 222050Z AUTO 28015KT 6000 -SHRA FEW022/// SCT024/// 06/04 Q0992
Loading
Personal Weather Stations






























Interactive Weather Map New forecast layout! Learn more

10-Day Weather Forecast

Advertisements
Track Severe Weather on mobile